Time,TemperatureF,DewpointF,PressureIn,WindDirection,WindDirectionDegrees,WindSpeedMPH,WindSpeedGustMPH,Humidity,HourlyPrecipIn,Conditions,Clouds,dailyrainin,SolarRadiationWatts/m^2,SoftwareType,DateUTC
2013-08-05 00:02:00,60.0,40.0,-100.00,WNW,285,2.0,3.0,48,0.00,,,0.00,0.000000,,2013-08-05 06:02:00,
2013-08-05 00:12:00,60.0,40.0,-100.00,WNW,285,2.0,3.0,48,0.00,,,0.00,0.000000,,2013-08-05 06:12:00,
2013-08-05 00:43:00,57.0,42.0,-100.00,WSW,239,2.0,4.0,58,0.00,,,0.00,0.000000,,2013-08-05 06:43:00,
2013-08-05 00:52:00,57.0,42.0,-100.00,WSW,239,2.0,4.0,58,0.00,,,0.00,0.000000,,2013-08-05 06:52:00,
2013-08-05 01:02:00,57.0,42.0,-100.00,WSW,239,2.0,4.0,58,0.00,,,0.00,0.000000,,2013-08-05 07:02:00,
2013-08-05 01:12:00,57.0,42.0,-100.00,WSW,239,2.0,4.0,58,0.00,,,0.00,0.000000,,2013-08-05 07:12:00,
2013-08-05 01:33:00,54.0,41.0,-100.00,WNW,292,0.0,4.0,62,0.00,,,0.00,0.000000,,2013-08-05 07:33:00,
2013-08-05 01:43:00,54.0,41.0,-100.00,WNW,292,0.0,4.0,62,0.00,,,0.00,0.000000,,2013-08-05 07:43:00,
2013-08-05 01:53:00,54.0,41.0,-100.00,WNW,292,0.0,4.0,62,0.00,,,0.00,0.000000,,2013-08-05 07:53:00,
2013-08-05 02:02:00,54.0,41.0,-100.00,WNW,292,0.0,4.0,62,0.00,,,0.00,0.000000,,2013-08-05 08:02:00,
2013-08-05 02:54:00,52.0,42.0,-100.00,NW,323,1.0,3.0,68,0.00,,,-99.99,0.000000,,2013-08-05 08:54:00,
2013-08-05 03:04:00,52.0,42.0,-100.00,NW,323,1.0,3.0,68,0.00,,,-99.99,0.000000,,2013-08-05 09:04:00,
2013-08-05 03:12:00,52.0,42.0,-100.00,NW,323,1.0,3.0,68,0.00,,,-99.99,0.000000,,2013-08-05 09:12:00,
2013-08-05 03:48:00,50.0,40.0,-100.00,West,269,1.0,4.0,69,0.00,,,-99.99,0.000000,,2013-08-05 09:48:00,
2013-08-05 03:53:00,50.0,40.0,-100.00,West,269,1.0,4.0,69,0.00,,,-99.99,0.000000,,2013-08-05 09:53:00,
2013-08-05 04:04:00,50.0,40.0,-100.00,West,269,1.0,4.0,69,0.00,,,-99.99,0.000000,,2013-08-05 10:04:00,
2013-08-05 04:13:00,50.0,40.0,-100.00,West,269,1.0,4.0,69,0.00,,,-99.99,0.000000,,2013-08-05 10:13:00,
2013-08-05 04:50:00,50.0,41.0,-100.00,WSW,242,4.0,6.0,70,0.00,,,0.00,0.000000,,2013-08-05 10:50:00,
2013-08-05 05:04:00,50.0,41.0,-100.00,WSW,242,4.0,6.0,70,0.00,,,0.00,0.000000,,2013-08-05 11:04:00,
2013-08-05 05:12:00,50.0,41.0,-100.00,WSW,242,4.0,6.0,70,0.00,,,0.00,0.000000,,2013-08-05 11:12:00,
2013-08-05 05:52:00,49.0,40.0,-100.00,WNW,284,3.0,6.0,70,0.00,,,-99.99,0.000000,,2013-08-05 11:52:00,
2013-08-05 05:58:00,49.0,40.0,-100.00,WNW,284,3.0,6.0,70,0.00,,,-99.99,0.000000,,2013-08-05 11:58:00,
2013-08-05 06:04:00,49.0,40.0,-100.00,WNW,284,3.0,6.0,70,0.00,,,-99.99,0.000000,,2013-08-05 12:04:00,
2013-08-05 06:12:00,49.0,40.0,-100.00,WNW,284,3.0,6.0,70,0.00,,,-99.99,0.000000,,2013-08-05 12:12:00,
2013-08-05 06:51:00,48.0,40.0,-100.00,SSW,212,2.0,6.0,73,0.00,,,0.00,0.000000,,2013-08-05 12:51:00,
2013-08-05 06:58:00,48.0,40.0,-100.00,SSW,212,2.0,6.0,73,0.00,,,0.00,0.000000,,2013-08-05 12:58:00,
2013-08-05 07:13:00,48.0,40.0,-100.00,SSW,212,2.0,6.0,73,0.00,,,0.00,0.000000,,2013-08-05 13:13:00,
2013-08-05 07:45:00,49.0,40.0,-100.00,SW,217,4.0,6.0,72,0.00,,,0.00,0.000000,,2013-08-05 13:45:00,
2013-08-05 07:54:00,49.0,40.0,-100.00,SW,217,4.0,6.0,72,0.00,,,0.00,0.000000,,2013-08-05 13:54:00,
2013-08-05 08:03:00,49.0,40.0,-100.00,SW,217,4.0,6.0,72,0.00,,,0.00,0.000000,,2013-08-05 14:03:00,
2013-08-05 08:12:00,49.0,40.0,-100.00,SW,217,4.0,6.0,72,0.00,,,0.00,0.000000,,2013-08-05 14:12:00,
2013-08-05 08:54:00,51.0,42.0,-100.00,WNW,298,4.0,7.0,71,0.00,,,-99.99,17.000000,,2013-08-05 14:54:00,
2013-08-05 09:04:00,51.0,42.0,-100.00,WNW,298,4.0,7.0,71,0.00,,,-99.99,17.000000,,2013-08-05 15:04:00,
2013-08-05 09:12:00,51.0,42.0,-100.00,WNW,298,4.0,7.0,71,0.00,,,-99.99,17.000000,,2013-08-05 15:12:00,
2013-08-05 09:50:00,53.0,43.0,-100.00,South,189,2.0,6.0,68,0.00,,,0.00,81.000000,,2013-08-05 15:50:00,
2013-08-05 09:58:00,53.0,43.0,-100.00,South,189,2.0,6.0,68,0.00,,,0.00,81.000000,,2013-08-05 15:58:00,
2013-08-05 10:45:00,63.0,42.0,-100.00,SSW,204,4.0,10.0,46,0.00,,,0.00,309.000000,,2013-08-05 16:45:00,
2013-08-05 10:58:00,63.0,42.0,-100.00,SSW,204,4.0,10.0,46,0.00,,,0.00,309.000000,,2013-08-05 16:58:00,
2013-08-05 11:12:00,63.0,42.0,-100.00,SSW,204,4.0,10.0,46,0.00,,,0.00,309.000000,,2013-08-05 17:12:00,
2013-08-05 11:50:00,71.0,42.0,-100.00,SSE,156,4.0,9.0,35,0.00,,,0.00,498.000000,,2013-08-05 17:50:00,
2013-08-05 11:58:00,71.0,42.0,-100.00,SSE,156,4.0,9.0,35,0.00,,,0.00,498.000000,,2013-08-05 17:58:00,
2013-08-05 12:45:00,75.0,46.0,-100.00,SSE,147,3.0,7.0,36,0.00,,,0.00,530.000000,,2013-08-05 18:45:00,
2013-08-05 12:54:00,75.0,46.0,-100.00,SSE,147,3.0,7.0,36,0.00,,,0.00,530.000000,,2013-08-05 18:54:00,
2013-08-05 13:12:00,75.0,46.0,-100.00,SSE,147,3.0,7.0,36,0.00,,,0.00,530.000000,,2013-08-05 19:12:00,
2013-08-05 13:53:00,83.0,40.0,-100.00,ENE,57,4.0,7.0,22,0.00,,,0.00,781.000000,,2013-08-05 19:53:00,
2013-08-05 14:04:00,83.0,40.0,-100.00,ENE,57,4.0,7.0,22,0.00,,,0.00,781.000000,,2013-08-05 20:04:00,
2013-08-05 14:13:00,83.0,40.0,-100.00,ENE,57,4.0,7.0,22,0.00,,,0.00,781.000000,,2013-08-05 20:13:00,
2013-08-05 14:48:00,82.0,36.0,-100.00,NNE,29,6.0,12.0,19,0.00,,,0.00,642.000000,,2013-08-05 20:48:00,
2013-08-05 15:04:00,82.0,36.0,-100.00,NNE,29,6.0,12.0,19,0.00,,,0.00,642.000000,,2013-08-05 21:04:00,
2013-08-05 15:48:00,84.0,36.0,-100.00,NNE,29,10.0,19.0,18,0.00,,,0.00,918.000000,,2013-08-05 21:48:00,
2013-08-05 15:53:00,84.0,36.0,-100.00,NNE,29,10.0,19.0,18,0.00,,,0.00,918.000000,,2013-08-05 21:53:00,
2013-08-05 16:04:00,84.0,36.0,-100.00,NNE,29,10.0,19.0,18,0.00,,,0.00,918.000000,,2013-08-05 22:04:00,
2013-08-05 16:12:00,84.0,36.0,-100.00,NNE,29,10.0,19.0,18,0.00,,,0.00,918.000000,,2013-08-05 22:12:00,
2013-08-05 16:44:00,85.0,38.0,-100.00,SSE,148,5.0,19.0,19,0.00,,,0.00,871.000000,,2013-08-05 22:44:00,
2013-08-05 16:53:00,85.0,38.0,-100.00,SSE,148,5.0,19.0,19,0.00,,,0.00,871.000000,,2013-08-05 22:53:00,
2013-08-05 17:03:00,85.0,38.0,-100.00,SSE,148,5.0,19.0,19,0.00,,,0.00,871.000000,,2013-08-05 23:03:00,
2013-08-05 17:12:00,85.0,38.0,-100.00,SSE,148,5.0,19.0,19,0.00,,,0.00,871.000000,,2013-08-05 23:12:00,
2013-08-05 17:46:00,87.0,37.0,-100.00,South,175,6.0,17.0,17,0.00,,,0.00,813.000000,,2013-08-05 23:46:00,
2013-08-05 17:59:00,87.0,37.0,-100.00,South,175,6.0,17.0,17,0.00,,,0.00,813.000000,,2013-08-05 23:59:00,
2013-08-05 18:12:00,87.0,37.0,-100.00,South,175,6.0,17.0,17,0.00,,,0.00,813.000000,,2013-08-06 00:12:00,
2013-08-05 18:46:00,86.0,38.0,-100.00,NW,323,5.0,14.0,18,0.00,,,0.00,817.000000,,2013-08-06 00:46:00,
2013-08-05 18:57:00,86.0,38.0,-100.00,NW,323,5.0,14.0,18,0.00,,,0.00,817.000000,,2013-08-06 00:57:00,
2013-08-05 19:12:00,86.0,38.0,-100.00,NW,323,5.0,14.0,18,0.00,,,0.00,817.000000,,2013-08-06 01:12:00,
2013-08-05 19:42:00,85.0,38.0,-100.00,West,269,5.0,17.0,19,0.00,,,0.00,641.000000,,2013-08-06 01:42:00,
2013-08-05 19:59:00,85.0,38.0,-100.00,West,269,5.0,17.0,19,0.00,,,0.00,641.000000,,2013-08-06 01:59:00,
2013-08-05 20:04:00,85.0,38.0,-100.00,West,269,5.0,17.0,19,0.00,,,0.00,641.000000,,2013-08-06 02:04:00,
2013-08-05 20:12:00,85.0,38.0,-100.00,West,269,5.0,17.0,19,0.00,,,0.00,641.000000,,2013-08-06 02:12:00,
2013-08-05 20:48:00,80.0,37.0,-100.00,North,7,6.0,16.0,21,0.00,,,0.00,384.000000,,2013-08-06 02:48:00,
2013-08-05 21:01:00,80.0,37.0,-100.00,North,7,6.0,16.0,21,0.00,,,0.00,384.000000,,2013-08-06 03:01:00,
2013-08-05 21:12:00,80.0,37.0,-100.00,North,7,6.0,16.0,21,0.00,,,0.00,384.000000,,2013-08-06 03:12:00,
2013-08-05 21:45:00,75.0,41.0,-100.00,North,2,3.0,10.0,30,0.00,,,0.00,41.000000,,2013-08-06 03:45:00,
2013-08-05 21:52:00,75.0,41.0,-100.00,North,2,3.0,10.0,30,0.00,,,0.00,41.000000,,2013-08-06 03:52:00,
2013-08-05 22:01:00,75.0,41.0,-100.00,North,2,3.0,10.0,30,0.00,,,0.00,41.000000,,2013-08-06 04:01:00,
2013-08-05 22:11:00,75.0,41.0,-100.00,North,2,3.0,10.0,30,0.00,,,0.00,41.000000,,2013-08-06 04:11:00,
2013-08-05 22:33:00,67.0,41.0,-100.00,NW,326,2.0,6.0,39,0.00,,,0.00,12.000000,,2013-08-06 04:33:00,
2013-08-05 22:44:00,67.0,41.0,-100.00,NW,326,2.0,6.0,39,0.00,,,0.00,12.000000,,2013-08-06 04:44:00,
2013-08-05 22:53:00,67.0,41.0,-100.00,NW,326,2.0,6.0,39,0.00,,,0.00,12.000000,,2013-08-06 04:53:00,
2013-08-05 23:02:00,67.0,41.0,-100.00,NW,326,2.0,6.0,39,0.00,,,0.00,12.000000,,2013-08-06 05:02:00,
2013-08-05 23:11:00,67.0,41.0,-100.00,NW,326,2.0,6.0,39,0.00,,,0.00,12.000000,,2013-08-06 05:11:00,
2013-08-05 23:32:00,62.0,42.0,-100.00,West,261,1.0,4.0,47,0.00,,,0.00,0.000000,,2013-08-06 05:32:00,
2013-08-05 23:43:00,62.0,42.0,-100.00,West,261,1.0,4.0,47,0.00,,,0.00,0.000000,,2013-08-06 05:43:00,
2013-08-05 23:53:00,62.0,42.0,-100.00,West,261,1.0,4.0,47,0.00,,,0.00,0.000000,,2013-08-06 05:53:00,